createdAt,value
2018-08-22T00:00:48.834Z,98186.52
2018-08-22T00:03:17.477Z,98186.81
2018-08-22T00:05:46.390Z,98180.03
2018-08-22T00:08:15.701Z,98180.45
2018-08-22T00:10:44.402Z,98174.38
2018-08-22T00:13:13.382Z,98174.38
2018-08-22T00:15:42.168Z,98180.98
2018-08-22T00:18:10.969Z,98174.41
2018-08-22T00:20:39.629Z,98184.88
2018-08-22T00:23:08.245Z,98179.34
2018-08-22T00:25:37.079Z,98175.02
2018-08-22T00:28:05.893Z,98170.23
2018-08-22T00:30:34.737Z,98171.61
2018-08-22T00:33:03.393Z,98169.17
2018-08-22T00:35:32.055Z,98170.47
2018-08-22T00:38:00.742Z,98163.77
2018-08-22T00:40:29.537Z,98162.18
2018-08-22T00:42:58.562Z,98160.02
2018-08-22T00:45:27.434Z,98164.47
2018-08-22T00:47:56.131Z,98163.63
2018-08-22T00:50:24.946Z,98174.81
2018-08-22T00:52:53.723Z,98159.30
2018-08-22T00:55:22.395Z,98158.14
2018-08-22T00:57:51.296Z,98153.94
2018-08-22T01:00:20.059Z,98159.21
2018-08-22T01:02:55.271Z,98158.42
2018-08-22T01:05:24.590Z,98157.36
2018-08-22T01:07:53.541Z,98155.41
2018-08-22T01:10:22.283Z,98161.53
2018-08-22T01:12:51.057Z,98154.77
2018-08-22T01:15:19.784Z,98155.11
2018-08-22T01:17:48.519Z,98161.25
2018-08-22T01:20:17.290Z,98157.92
2018-08-22T01:22:45.946Z,98172.16
2018-08-22T01:25:14.644Z,98159.30
2018-08-22T01:27:44.374Z,98163.05
2018-08-22T01:30:13.340Z,98159.36
2018-08-22T01:32:42.115Z,98158.72
2018-08-22T01:35:10.874Z,98161.95
2018-08-22T01:37:39.579Z,98158.97
2018-08-22T01:40:08.236Z,98159.06
2018-08-22T01:42:36.935Z,98158.18
2018-08-22T01:45:06.003Z,98157.75
2018-08-22T01:47:34.726Z,98157.69
2018-08-22T01:50:03.535Z,98155.80
2018-08-22T01:52:32.201Z,98149.31
2018-08-22T01:55:01.200Z,98151.84
2018-08-22T01:57:29.917Z,98151.54
2018-08-22T01:59:58.607Z,98150.66
2018-08-22T02:02:27.458Z,98148.22
2018-08-22T02:04:56.266Z,98153.70
2018-08-22T02:07:24.926Z,98151.86
2018-08-22T02:09:53.663Z,98147.48
2018-08-22T02:12:22.347Z,98151.53
2018-08-22T02:14:51.205Z,98149.01
2018-08-22T02:17:19.916Z,98147.91
2018-08-22T02:19:48.838Z,98148.48
2018-08-22T02:22:17.690Z,98151.44
2018-08-22T02:24:46.502Z,98149.70
2018-08-22T02:27:15.257Z,98148.43
2018-08-22T02:29:50.530Z,98147.64
2018-08-22T02:32:19.186Z,98148.70
2018-08-22T02:34:48.002Z,98149.22
2018-08-22T02:37:17.120Z,98153.33
2018-08-22T02:39:45.947Z,98148.00
2018-08-22T02:42:14.615Z,98137.03
2018-08-22T02:44:43.339Z,98137.83
2018-08-22T02:47:12.467Z,98140.90
2018-08-22T02:49:41.106Z,98136.67
2018-08-22T02:52:09.950Z,98127.66
2018-08-22T02:54:38.701Z,98134.27
2018-08-22T02:57:07.480Z,98132.03
2018-08-22T02:59:36.410Z,98129.88
2018-08-22T03:02:05.066Z,98131.15
2018-08-22T03:04:34.440Z,98125.30
2018-08-22T03:07:03.161Z,98124.92
2018-08-22T03:09:31.826Z,98124.44
2018-08-22T03:12:00.660Z,98133.81
2018-08-22T03:14:29.610Z,98128.23
2018-08-22T03:16:58.390Z,98127.44
2018-08-22T03:19:27.187Z,98120.95
2018-08-22T03:21:55.883Z,98123.48
2018-08-22T03:24:24.902Z,98130.02
2018-08-22T03:26:53.873Z,98134.27
2018-08-22T03:29:22.567Z,98134.75
2018-08-22T03:31:51.378Z,98133.11
2018-08-22T03:34:20.149Z,98134.27
2018-08-22T03:36:48.839Z,98135.84
2018-08-22T03:39:17.490Z,98134.16
2018-08-22T03:41:46.138Z,98129.05
2018-08-22T03:44:14.903Z,98138.41
2018-08-22T03:46:43.571Z,98134.52
2018-08-22T03:49:12.349Z,98135.67
2018-08-22T03:51:41.047Z,98133.37
2018-08-22T03:54:09.881Z,98133.30
2018-08-22T03:56:38.637Z,98134.09
2018-08-22T03:59:07.282Z,98133.20
2018-08-22T04:01:35.984Z,98136.15
2018-08-22T04:04:04.704Z,98139.13
2018-08-22T04:06:33.473Z,98141.63
2018-08-22T04:09:02.290Z,98140.19
2018-08-22T04:11:31.086Z,98140.77
2018-08-22T04:13:59.723Z,98146.89
2018-08-22T04:16:28.406Z,98143.72
2018-08-22T04:18:57.095Z,98159.42
2018-08-22T04:21:25.833Z,98149.84
2018-08-22T04:23:54.512Z,98148.72
2018-08-22T04:26:23.258Z,98150.09
2018-08-22T04:28:52.210Z,98159.09
2018-08-22T04:31:21.001Z,98156.61
2018-08-22T04:33:49.775Z,98149.19
2018-08-22T04:36:18.422Z,98152.86
2018-08-22T04:38:47.057Z,98147.25
2018-08-22T04:41:15.941Z,98144.15
2018-08-22T04:43:44.693Z,98146.89
2018-08-22T04:46:13.725Z,98154.13
2018-08-22T04:48:42.616Z,98160.22
2018-08-22T04:51:11.350Z,98155.86
2018-08-22T04:53:40.018Z,98164.47
2018-08-22T04:56:08.981Z,98157.36
2018-08-22T04:58:37.681Z,98156.86
2018-08-22T05:01:06.661Z,98154.77
2018-08-22T05:03:35.411Z,98154.77
2018-08-22T05:06:04.061Z,98150.61
2018-08-22T05:08:33.306Z,98153.23
2018-08-22T05:11:02.081Z,98158.34
2018-08-22T05:13:30.840Z,98159.20
2018-08-22T05:15:59.491Z,98153.08
2018-08-22T05:18:28.135Z,98155.56
2018-08-22T05:20:56.965Z,98152.31
2018-08-22T05:23:25.641Z,98159.69
2018-08-22T05:25:54.321Z,98158.17
2018-08-22T05:28:23.047Z,98161.25
2018-08-22T05:30:51.780Z,98161.78
2018-08-22T05:33:20.456Z,98158.47
2018-08-22T05:35:49.150Z,98157.74
2018-08-22T05:38:18.069Z,98159.26
2018-08-22T05:40:46.810Z,98158.34
2018-08-22T05:43:15.463Z,98163.29
2018-08-22T05:45:44.256Z,98165.28
2018-08-22T05:48:12.996Z,98166.52
2018-08-22T05:50:41.685Z,98168.19
2018-08-22T05:53:10.418Z,98168.84
2018-08-22T05:55:39.069Z,98165.98
2018-08-22T05:58:07.984Z,98164.09
2018-08-22T06:00:36.859Z,98166.86
2018-08-22T06:03:05.514Z,98173.72
2018-08-22T06:05:34.222Z,98179.08
2018-08-22T06:08:03.046Z,98180.81
2018-08-22T06:10:31.932Z,98183.48
2018-08-22T06:13:00.619Z,98181.69
2018-08-22T06:15:29.276Z,98184.34
2018-08-22T06:17:58.525Z,98182.82
2018-08-22T06:20:27.377Z,98188.31
2018-08-22T06:22:56.066Z,98184.34
2018-08-22T06:25:24.748Z,98184.20
2018-08-22T06:27:53.566Z,98179.70
2018-08-22T06:30:22.311Z,98179.92
2018-08-22T06:32:51.040Z,98179.48
2018-08-22T06:35:19.672Z,98172.53
2018-08-22T06:37:48.691Z,98183.06
2018-08-22T06:40:17.349Z,98182.32
2018-08-22T06:42:45.994Z,98179.48
2018-08-22T06:45:14.799Z,98180.98
2018-08-22T06:47:43.517Z,98176.87
2018-08-22T06:50:12.218Z,98176.36
2018-08-22T06:52:41.022Z,98179.52
2018-08-22T06:55:09.731Z,98177.13
2018-08-22T06:57:38.497Z,98175.38
2018-08-22T07:00:08.493Z,98169.83
2018-08-22T07:02:37.296Z,98171.48
2018-08-22T07:05:06.334Z,98168.70
2018-08-22T07:07:35.068Z,98165.81
2018-08-22T07:10:03.860Z,98166.59
2018-08-22T07:12:32.538Z,98161.59
2018-08-22T07:15:01.239Z,98163.23
2018-08-22T07:17:29.933Z,98160.38
2018-08-22T07:19:58.602Z,98154.58
2018-08-22T07:22:27.537Z,98154.75
2018-08-22T07:24:56.193Z,98155.16
2018-08-22T07:27:25.083Z,98155.25
2018-08-22T07:29:53.981Z,98153.98
2018-08-22T07:32:22.862Z,98154.52
2018-08-22T07:34:51.992Z,98157.86
2018-08-22T07:37:21.060Z,98161.55
2018-08-22T07:39:49.733Z,98162.83
2018-08-22T07:42:18.421Z,98157.88
2018-08-22T07:44:47.066Z,98159.22
2018-08-22T07:47:15.765Z,98159.09
2018-08-22T07:49:44.445Z,98158.84
2018-08-22T07:52:13.980Z,98163.11
2018-08-22T07:54:45.885Z,98162.81
2018-08-22T07:57:16.214Z,98161.36
2018-08-22T07:59:44.998Z,98157.37
2018-08-22T08:02:13.661Z,98158.61
2018-08-22T08:04:42.304Z,98155.73
2018-08-22T08:07:11.277Z,98158.59
2018-08-22T08:09:40.023Z,98149.58
2018-08-22T08:12:08.728Z,98154.60
2018-08-22T08:14:37.725Z,98149.47
2018-08-22T08:17:06.536Z,98150.73
2018-08-22T08:19:35.328Z,98155.53
2018-08-22T08:22:04.013Z,98150.64
2018-08-22T08:24:32.776Z,98144.76
2018-08-22T08:27:01.716Z,98141.48
2018-08-22T08:29:30.685Z,98140.91
2018-08-22T08:31:59.431Z,98139.16
2018-08-22T08:34:28.087Z,98136.81
2018-08-22T08:36:56.950Z,98141.17
2018-08-22T08:39:25.600Z,98134.88
2018-08-22T08:41:54.297Z,98134.48
2018-08-22T08:44:23.051Z,98127.57
2018-08-22T08:46:51.828Z,98131.53
2018-08-22T08:49:20.584Z,98120.30
2018-08-22T08:51:57.771Z,98122.67
2018-08-22T08:54:26.661Z,98112.58
2018-08-22T08:56:55.332Z,98115.75
2018-08-22T08:59:24.245Z,98107.27
2018-08-22T09:01:53.047Z,98112.56
2018-08-22T09:04:21.898Z,98111.80
2018-08-22T09:06:51.015Z,98103.66
2018-08-22T09:09:19.785Z,98112.92
2018-08-22T09:11:51.354Z,98104.81
2018-08-22T09:14:20.102Z,98094.86
2018-08-22T09:16:49.561Z,98097.73
2018-08-22T09:19:18.498Z,98096.34
2018-08-22T09:21:47.305Z,98096.27
2018-08-22T09:24:16.106Z,98092.86
2018-08-22T09:26:44.802Z,98091.98
2018-08-22T09:29:13.886Z,98093.84
2018-08-22T09:31:42.559Z,98096.51
2018-08-22T09:34:11.384Z,98089.66
2018-08-22T09:36:40.173Z,98092.25
2018-08-22T09:39:11.959Z,98091.02
2018-08-22T09:41:40.721Z,98087.77
2018-08-22T09:44:09.542Z,98084.31
2018-08-22T09:46:39.621Z,98079.25
2018-08-22T09:49:08.735Z,98080.44
2018-08-22T09:51:37.713Z,98078.34
2018-08-22T09:54:06.502Z,98075.41
2018-08-22T09:56:35.210Z,98075.39
2018-08-22T09:59:04.157Z,98067.23
2018-08-22T10:01:38.304Z,98062.77
2018-08-22T10:04:07.095Z,98063.62
2018-08-22T10:06:44.880Z,98055.27
2018-08-22T10:09:17.065Z,98053.36
2018-08-22T10:11:45.945Z,98045.77
2018-08-22T10:14:14.718Z,98050.59
2018-08-22T10:16:43.486Z,98049.83
2018-08-22T10:19:12.146Z,98043.75
2018-08-22T10:21:40.863Z,98041.89
2018-08-22T10:24:09.615Z,98036.02
2018-08-22T10:26:38.544Z,98040.61
2018-08-22T10:29:07.373Z,98035.23
2018-08-22T10:31:36.081Z,98040.61
2018-08-22T10:34:05.061Z,98034.97
2018-08-22T10:36:33.709Z,98033.15
2018-08-22T10:39:02.620Z,98027.48
2018-08-22T10:41:31.429Z,98027.66
2018-08-22T10:44:00.082Z,98026.52
2018-08-22T10:46:28.856Z,98025.81
2018-08-22T10:48:57.662Z,98018.92
2018-08-22T10:51:26.314Z,98018.19
2018-08-22T10:53:55.072Z,98020.25
2018-08-22T10:56:23.812Z,98015.52
2018-08-22T10:58:52.486Z,98010.14
2018-08-22T11:01:21.202Z,98009.98
2018-08-22T11:03:49.905Z,98009.80
2018-08-22T11:06:18.683Z,98009.21
2018-08-22T11:08:47.362Z,98010.57
2018-08-22T11:11:16.077Z,98005.28
2018-08-22T11:13:44.988Z,97995.02
2018-08-22T11:16:13.641Z,98002.49
2018-08-22T11:18:42.871Z,98005.35
2018-08-22T11:21:22.739Z,97999.06
2018-08-22T11:24:02.760Z,97996.52
2018-08-22T11:26:42.398Z,97995.66
2018-08-22T11:29:22.283Z,97990.84
2018-08-22T11:32:01.994Z,97994.33
2018-08-22T11:34:41.863Z,97993.41
2018-08-22T11:37:11.838Z,97984.30
2018-08-22T11:39:40.582Z,97975.88
2018-08-22T11:42:09.309Z,97976.17
2018-08-22T11:44:38.224Z,97982.69
2018-08-22T11:47:06.984Z,97978.08
2018-08-22T11:49:35.769Z,97979.69
2018-08-22T11:52:04.487Z,97978.90
2018-08-22T11:54:33.357Z,97982.09
2018-08-22T11:57:02.981Z,97974.88
2018-08-22T11:59:31.950Z,97977.57
2018-08-22T12:02:00.671Z,97978.81
2018-08-22T12:04:29.330Z,97972.16
2018-08-22T12:06:58.060Z,97974.02
2018-08-22T12:09:26.840Z,97971.41
2018-08-22T12:11:55.714Z,97967.76
2018-08-22T12:14:24.476Z,97968.14
2018-08-22T12:16:53.613Z,97960.02
2018-08-22T12:19:22.245Z,97948.50
2018-08-22T12:21:50.969Z,97952.96
2018-08-22T12:24:19.668Z,97959.05
2018-08-22T12:26:48.679Z,97953.81
2018-08-22T12:29:17.528Z,97943.41
2018-08-22T12:31:46.321Z,97944.13
2018-08-22T12:34:15.338Z,97939.44
2018-08-22T12:36:44.093Z,97944.86
2018-08-22T12:39:12.867Z,97935.06
2018-08-22T12:41:41.806Z,97931.70
2018-08-22T12:44:10.589Z,97925.81
2018-08-22T12:46:39.246Z,97926.11
2018-08-22T12:49:08.078Z,97923.13
2018-08-22T12:51:39.236Z,97924.45
2018-08-22T12:54:08.033Z,97912.78
2018-08-22T12:56:36.802Z,97917.41
2018-08-22T12:59:05.895Z,97919.31
2018-08-22T13:01:35.045Z,97914.98
2018-08-22T13:04:03.743Z,97918.59
2018-08-22T13:06:32.470Z,97914.48
2018-08-22T13:09:01.674Z,97903.79
2018-08-22T13:11:30.438Z,97891.38
2018-08-22T13:13:59.130Z,97890.77
2018-08-22T13:16:27.902Z,97884.20
2018-08-22T13:18:56.822Z,97882.08
2018-08-22T13:21:26.113Z,97878.12
2018-08-22T13:23:54.819Z,97880.34
2018-08-22T13:26:23.830Z,97871.09
2018-08-22T13:28:52.557Z,97873.84
2018-08-22T13:31:21.300Z,97883.52
2018-08-22T13:33:50.155Z,97880.91
2018-08-22T13:36:21.793Z,97877.80
2018-08-22T13:38:50.698Z,97872.19
2018-08-22T13:41:19.388Z,97877.34
2018-08-22T13:43:48.185Z,97869.20
2018-08-22T13:46:17.009Z,97865.53
2018-08-22T13:48:46.715Z,97858.78
2018-08-22T13:51:16.262Z,97855.91
2018-08-22T13:53:45.147Z,97859.14
2018-08-22T13:56:13.891Z,97857.89
2018-08-22T13:58:43.005Z,97854.78
2018-08-22T14:01:11.870Z,97858.27
2018-08-22T14:03:40.601Z,97849.09
2018-08-22T14:09:08.565Z,97844.27
2018-08-22T14:11:37.374Z,97842.71
2018-08-22T14:14:06.324Z,97843.33
2018-08-22T14:16:35.265Z,97845.63
2018-08-22T14:19:03.946Z,97837.22
2018-08-22T14:21:32.655Z,97835.84
2018-08-22T14:24:01.591Z,97838.84
2018-08-22T14:26:30.554Z,97841.93
2018-08-22T14:28:59.286Z,97837.36
2018-08-22T14:31:28.030Z,97839.84
2018-08-22T14:33:56.699Z,97838.19
2018-08-22T14:36:25.576Z,97828.39
2018-08-22T14:38:54.331Z,97829.80
2018-08-22T14:41:23.490Z,97826.47
2018-08-22T14:43:52.192Z,97823.44
2018-08-22T14:46:20.878Z,97820.14
2018-08-22T14:48:49.844Z,97818.25
2018-08-22T14:51:19.459Z,97818.70
2018-08-22T14:53:48.293Z,97825.01
2018-08-22T14:56:17.546Z,97817.41
2018-08-22T14:58:46.609Z,97814.82
2018-08-22T15:01:15.879Z,97812.34
2018-08-22T15:03:46.918Z,97811.44
2018-08-22T15:06:16.061Z,97812.90
2018-08-22T15:08:44.985Z,97815.70
2018-08-22T15:11:13.674Z,97814.93
2018-08-22T15:13:42.354Z,97798.50
2018-08-22T15:16:11.113Z,97802.84
2018-08-22T15:18:40.367Z,97799.09
2018-08-22T15:21:14.188Z,97802.28
2018-08-22T15:23:42.927Z,97795.59
2018-08-22T15:26:12.277Z,97795.06
2018-08-22T15:28:41.408Z,97797.48
2018-08-22T15:31:10.177Z,97792.70
2018-08-22T15:33:39.556Z,97785.56
2018-08-22T15:36:08.367Z,97787.62
2018-08-22T15:38:37.079Z,97780.59
2018-08-22T15:41:06.370Z,97788.68
2018-08-22T15:43:35.517Z,97785.11
2018-08-22T15:46:04.264Z,97781.09
2018-08-22T15:48:33.082Z,97781.41
2018-08-22T15:51:02.222Z,97778.30
2018-08-22T15:53:31.402Z,97778.47
2018-08-22T15:56:00.121Z,97780.07
2018-08-22T15:58:28.986Z,97774.53
2018-08-22T16:03:41.849Z,97762.88
2018-08-22T16:06:10.587Z,97762.71
2018-08-22T16:08:39.416Z,97762.15
2018-08-22T16:11:08.109Z,97758.86
2018-08-22T16:13:38.067Z,97761.45
2018-08-22T16:16:06.864Z,97759.97
2018-08-22T16:18:35.508Z,97751.07
2018-08-22T16:21:06.467Z,97750.66
2018-08-22T16:23:36.018Z,97748.94
2018-08-22T16:26:05.844Z,97748.61
2018-08-22T16:28:46.993Z,97746.55
2018-08-22T16:31:16.068Z,97746.58
2018-08-22T16:33:44.711Z,97746.68
2018-08-22T16:36:19.613Z,97752.87
2018-08-22T16:38:48.502Z,97753.95
2018-08-22T16:41:18.439Z,97755.83
2018-08-22T16:43:49.757Z,97756.03
2018-08-22T16:46:18.625Z,97755.33
2018-08-22T16:48:50.646Z,97753.33
2018-08-22T16:51:20.242Z,97750.10
2018-08-22T16:54:02.962Z,97759.02
2018-08-22T16:56:34.113Z,97754.45
2018-08-22T16:59:09.995Z,97754.83
2018-08-22T17:01:47.110Z,97752.98
2018-08-22T17:04:15.989Z,97757.77
2018-08-22T17:06:44.846Z,97752.70
2018-08-22T17:09:13.530Z,97755.48
2018-08-22T17:11:42.520Z,97751.49
2018-08-22T17:14:11.170Z,97752.64
2018-08-22T17:16:39.963Z,97752.90
2018-08-22T17:19:08.607Z,97748.40
2018-08-22T17:21:37.390Z,97742.50
2018-08-22T17:24:06.295Z,97740.30
2018-08-22T17:26:35.792Z,97742.67
2018-08-22T17:29:04.545Z,97747.84
2018-08-22T17:31:33.321Z,97744.61
2018-08-22T17:34:03.248Z,97755.28
2018-08-22T17:36:31.964Z,97751.53
2018-08-22T17:39:01.818Z,97756.12
2018-08-22T17:41:31.467Z,97754.34
2018-08-22T17:44:03.285Z,97745.43
2018-08-22T17:46:35.364Z,97752.01
2018-08-22T17:49:04.970Z,97759.27
2018-08-22T17:51:45.069Z,97752.73
2018-08-22T17:54:13.829Z,97758.25
2018-08-22T17:56:43.001Z,97752.88
2018-08-22T17:59:11.845Z,97754.76
2018-08-22T18:01:40.954Z,97755.23
2018-08-22T18:04:09.730Z,97755.72
2018-08-22T18:06:38.449Z,97761.97
2018-08-22T18:09:07.518Z,97763.30
2018-08-22T18:11:36.262Z,97761.61
2018-08-22T18:14:05.077Z,97760.77
2018-08-22T18:16:33.977Z,97771.65
2018-08-22T18:19:02.829Z,97775.75
2018-08-22T18:21:38.611Z,97774.45
2018-08-22T18:24:08.502Z,97775.77
2018-08-22T18:26:37.175Z,97779.86
2018-08-22T18:29:06.021Z,97780.97
2018-08-22T18:31:34.873Z,97781.46
2018-08-22T18:34:04.071Z,97784.16
2018-08-22T18:36:33.520Z,97786.36
2018-08-22T18:39:06.973Z,97787.81
2018-08-22T18:41:35.801Z,97784.90
2018-08-22T18:44:04.769Z,97793.88
2018-08-22T18:46:33.662Z,97793.70
2018-08-22T18:49:02.783Z,97790.57
2018-08-22T18:51:31.743Z,97797.17
2018-08-22T18:54:01.564Z,97792.08
2018-08-22T18:56:30.503Z,97795.52
2018-08-22T18:59:03.721Z,97794.58
2018-08-22T19:01:32.685Z,97798.20
2018-08-22T19:04:01.323Z,97798.22
2018-08-22T19:06:30.147Z,97800.88
2018-08-22T19:08:58.838Z,97813.37
2018-08-22T19:11:27.717Z,97810.50
2018-08-22T19:13:56.502Z,97812.80
2018-08-22T19:16:25.200Z,97815.02
2018-08-22T19:18:53.890Z,97818.69
2018-08-22T19:21:22.934Z,97816.77
2018-08-22T19:23:57.144Z,97814.92
2018-08-22T19:26:26.698Z,97814.86
2018-08-22T19:28:58.626Z,97814.14
2018-08-22T19:31:27.419Z,97821.90
2018-08-22T19:33:56.186Z,97818.19
2018-08-22T19:36:25.236Z,97823.16
2018-08-22T19:38:54.112Z,97819.40
2018-08-22T19:41:29.371Z,97819.80
2018-08-22T19:43:58.032Z,97817.45
2018-08-22T19:46:26.808Z,97817.05
2018-08-22T19:48:55.684Z,97817.27
2018-08-22T19:51:24.386Z,97815.89
2018-08-22T19:53:59.729Z,97816.50
2018-08-22T19:56:29.030Z,97817.51
2018-08-22T19:58:57.938Z,97818.89
2018-08-22T20:01:32.583Z,97824.05
2018-08-22T20:04:01.494Z,97819.53
2018-08-22T20:06:30.579Z,97821.89
2018-08-22T20:09:00.571Z,97825.85
2018-08-22T20:11:31.977Z,97832.20
2018-08-22T20:14:06.643Z,97826.34
2018-08-22T20:16:35.548Z,97825.60
2018-08-22T20:19:05.348Z,97830.77
2018-08-22T20:21:35.305Z,97837.83
2018-08-22T20:24:05.481Z,97835.84
2018-08-22T20:26:34.806Z,97833.90
2018-08-22T20:29:04.946Z,97836.48
2018-08-22T20:31:35.642Z,97829.80
2018-08-22T20:34:15.786Z,97831.63
2018-08-22T20:36:46.154Z,97838.53
2018-08-22T20:39:15.340Z,97829.84
2018-08-22T20:41:44.739Z,97831.66
2018-08-22T20:44:16.293Z,97834.45
2018-08-22T20:46:46.435Z,97836.62
2018-08-22T20:49:16.561Z,97831.36
2018-08-22T20:51:45.291Z,97832.34
2018-08-22T20:54:15.330Z,97830.59
2018-08-22T20:56:49.376Z,97827.27
2018-08-22T20:59:19.468Z,97819.56
2018-08-22T21:01:53.177Z,97825.71
2018-08-22T21:04:22.446Z,97823.54
2018-08-22T21:06:51.145Z,97834.20
2018-08-22T21:09:20.451Z,97838.34
2018-08-22T21:11:49.897Z,97841.48
2018-08-22T21:14:19.027Z,97830.87
2018-08-22T21:16:47.726Z,97837.78
2018-08-22T21:19:16.561Z,97839.36
2018-08-22T21:21:45.407Z,97838.38
2018-08-22T21:24:14.181Z,97834.45
2018-08-22T21:26:44.781Z,97829.73
2018-08-22T21:29:13.659Z,97838.56
2018-08-22T21:31:42.315Z,97831.66
2018-08-22T21:34:16.124Z,97836.20
2018-08-22T21:36:46.161Z,97835.60
2018-08-22T21:39:20.047Z,97833.02
2018-08-22T21:41:49.360Z,97827.32
2018-08-22T21:44:20.418Z,97826.34
2018-08-22T21:46:56.213Z,97830.45
2018-08-22T21:49:25.440Z,97826.52
2018-08-22T21:51:57.023Z,97834.39
2018-08-22T21:54:25.886Z,97829.09
2018-08-22T21:56:54.573Z,97840.92
2018-08-22T21:59:23.284Z,97846.83
2018-08-22T22:01:57.349Z,97838.94
2018-08-22T22:04:30.126Z,97829.69
2018-08-22T22:06:58.838Z,97837.73
2018-08-22T22:09:27.518Z,97838.14
2018-08-22T22:11:59.166Z,97834.97
2018-08-22T22:14:31.276Z,97828.48
2018-08-22T22:17:01.072Z,97832.21
2018-08-22T22:19:32.859Z,97828.08
2018-08-22T22:22:02.337Z,97827.84
2018-08-22T22:24:31.066Z,97824.70
2018-08-22T22:27:00.342Z,97828.63
2018-08-22T22:29:31.532Z,97821.52
2018-08-22T22:32:00.298Z,97826.97
2018-08-22T22:34:29.022Z,97817.70
2018-08-22T22:36:57.650Z,97818.88
2018-08-22T22:39:38.056Z,97822.40
2018-08-22T22:42:16.685Z,97821.97
2018-08-22T22:44:47.061Z,97827.28
2018-08-22T22:47:20.855Z,97820.40
2018-08-22T22:49:50.467Z,97824.30
2018-08-22T22:52:35.771Z,97827.81
2018-08-22T22:55:05.843Z,97824.86
2018-08-22T22:57:36.103Z,97822.47
2018-08-22T23:00:05.939Z,97828.56
2018-08-22T23:02:34.805Z,97822.81
2018-08-22T23:05:03.603Z,97823.60
2018-08-22T23:07:34.712Z,97822.98
2018-08-22T23:10:07.838Z,97819.55
2018-08-22T23:12:50.663Z,97820.73
2018-08-22T23:15:23.222Z,97823.48
2018-08-22T23:17:53.836Z,97821.48
2018-08-22T23:20:36.023Z,97823.64
2018-08-22T23:23:09.100Z,97815.77
2018-08-22T23:25:38.447Z,97811.84
2018-08-22T23:28:07.197Z,97809.25
2018-08-22T23:30:37.233Z,97813.61
2018-08-22T23:33:06.851Z,97809.05
2018-08-22T23:35:36.567Z,97810.58
2018-08-22T23:38:07.993Z,97812.73
2018-08-22T23:40:37.915Z,97813.51
2018-08-22T23:43:06.572Z,97809.73
2018-08-22T23:45:37.195Z,97809.88
2018-08-22T23:48:06.677Z,97811.84
2018-08-22T23:50:43.706Z,97809.86
2018-08-22T23:53:12.344Z,97810.80
2018-08-22T23:55:41.182Z,97811.34
2018-08-22T23:58:09.858Z,97803.67
